This is the latest recevied weather packets stored in our database for station/object W1SCW. If no packets are shown the sender has not sent any weather packets the latest 10 day(s).
| Time | Temp. | Humidity | Pressure | Rain* | Wind** | Luminosity | Snow |
|---|---|---|---|---|---|---|---|
| 1777659039 | 16.67° C | 99% | 1007 hPa | 1.78 mm | - | 28 W/m² | - |
| 1777658738 | 16.67° C | 99% | 1006.4 hPa | 5.33 mm | - | 30 W/m² | - |
| 1777658433 | 16.67° C | 99% | 1006.3 hPa | 6.6 mm | - | 34 W/m² | - |
| 1777658130 | 16.67° C | 99% | 1007.6 hPa | 3.05 mm | - | 33 W/m² | - |
| 1777657827 | 16.67° C | 99% | 1007.7 hPa | 1.78 mm | - | 22 W/m² | - |
| 1777657524 | 16.67° C | 99% | 1008.3 hPa | 1.27 mm | - | 19 W/m² | - |
| 1777657222 | 17.22° C | 99% | 1008.4 hPa | 1.78 mm | - | 34 W/m² | - |
| 1777656919 | 16.67° C | 99% | 1008.5 hPa | 1.78 mm | - | 50 W/m² | - |
| 1777656615 | 16.67° C | 99% | 1008.8 hPa | 1.27 mm | - | 52 W/m² | - |
| 1777656311 | 16.67° C | 99% | 1008.8 hPa | 1.78 mm | - | 56 W/m² | - |
| 1777656007 | 16.67° C | 99% | 1009.1 hPa | 1.78 mm | - | 54 W/m² | - |
| 1777655703 | 16.67° C | 99% | 1009 hPa | 0.51 mm | - | 82 W/m² | - |
| 1777655400 | 16.67° C | 99% | 1009 hPa | 0.51 mm | - | 84 W/m² | - |
| 1777655096 | 16.67° C | 99% | 1008.9 hPa | 0 mm | - | 78 W/m² | - |
| 1777654793 | 16.67° C | 99% | 1009.3 hPa | 0 mm | - | 156 W/m² | - |
| 1777654491 | 16.67° C | 99% | 1009.4 hPa | 1.27 mm | - | 165 W/m² | - |
| 1777654189 | 16.67° C | 99% | 1009.5 hPa | 2.29 mm | - | 145 W/m² | - |
| 1777653887 | 16.67° C | 99% | 1009.7 hPa | 3.05 mm | - | 107 W/m² | - |
| 1777653583 | 16.67° C | 99% | 1009.7 hPa | 4.32 mm | - | 76 W/m² | - |
| 1777653279 | 16.67° C | 99% | 1010 hPa | 4.32 mm | - | 53 W/m² | - |
| 1777652976 | 16.67° C | 99% | 1010.4 hPa | 4.32 mm | - | 45 W/m² | - |
| 1777652672 | 16.67° C | 99% | 1010.6 hPa | 6.6 mm | - | 40 W/m² | - |
| 1777652370 | 16.67° C | 99% | 1011.4 hPa | 6.6 mm | - | 39 W/m² | - |
| 1777652066 | 16.67° C | 99% | 1010.8 hPa | 7.87 mm | - | 50 W/m² | - |
| 1777651763 | 16.67° C | 99% | 1011.1 hPa | 7.11 mm | - | 18 W/m² | - |
* Rain latest hour (hover to see other rain measurements)
** Current wind speed in m/s (hover to see current wind gust speed)